createdAt,value
2022-09-13T00:49:50.797Z,4.15
2022-09-13T00:56:02.317Z,3.90
2022-09-13T01:02:04.955Z,3.80
2022-09-13T01:08:16.087Z,4.07
2022-09-13T01:14:21.090Z,3.72
2022-09-13T01:20:30.538Z,4.10
2022-09-13T01:27:03.353Z,3.72
2022-09-13T01:33:26.373Z,4.05
2022-09-13T01:39:47.870Z,4.00
2022-09-13T01:46:19.352Z,3.92
2022-09-13T01:52:24.641Z,4.05
2022-09-13T01:58:56.959Z,3.95
2022-09-13T02:05:05.917Z,4.53
2022-09-13T02:11:17.293Z,4.28
2022-09-13T02:17:23.704Z,4.30
2022-09-13T02:23:40.490Z,4.57
2022-09-13T02:29:46.246Z,4.60
2022-09-13T02:35:54.168Z,4.70
2022-09-13T02:48:18.164Z,4.88
2022-09-13T02:54:30.485Z,4.72
2022-09-13T03:00:32.423Z,4.43
2022-09-13T03:06:34.217Z,4.68
2022-09-13T03:12:57.689Z,5.57
2022-09-13T03:19:19.304Z,5.35
2022-09-13T03:26:00.962Z,5.00
2022-09-13T03:32:17.051Z,4.88
2022-09-13T03:38:32.739Z,4.93
2022-09-13T03:44:38.668Z,5.10
2022-09-13T03:50:41.029Z,5.00
2022-09-13T03:56:42.897Z,4.90
2022-09-13T04:02:45.137Z,4.93
2022-09-13T04:08:47.029Z,4.80
2022-09-13T04:14:49.181Z,5.30
2022-09-13T04:20:59.504Z,5.22
2022-09-13T04:27:01.979Z,6.20
2022-09-13T04:33:03.794Z,5.57
2022-09-13T04:39:05.587Z,6.45
2022-09-13T04:45:08.206Z,6.35
2022-09-13T04:51:10.255Z,6.97
2022-09-13T04:57:12.457Z,6.80
2022-09-13T05:03:14.210Z,7.40
2022-09-13T05:09:16.108Z,6.15
2022-09-13T05:15:17.874Z,7.50
2022-09-13T05:21:20.182Z,6.72
2022-09-13T05:27:22.028Z,6.40
2022-09-13T05:33:24.491Z,6.25
2022-09-13T05:39:34.009Z,6.60
2022-09-13T05:45:45.562Z,7.13
2022-09-13T05:51:47.334Z,6.50
2022-09-13T05:57:49.987Z,6.65
2022-09-13T06:03:55.319Z,7.00
2022-09-13T06:09:58.499Z,7.20
2022-09-13T06:16:01.897Z,7.30
2022-09-13T06:22:03.707Z,7.10
2022-09-13T06:28:05.545Z,7.55
2022-09-13T06:34:07.286Z,7.20
2022-09-13T06:40:09.571Z,6.95
2022-09-13T06:46:13.859Z,6.80
2022-09-13T06:52:15.744Z,6.28
2022-09-13T06:58:17.475Z,6.50
2022-09-13T07:04:19.538Z,6.22
2022-09-13T07:10:21.313Z,6.22
2022-09-13T07:16:28.776Z,6.40
2022-09-13T07:22:30.697Z,5.72
2022-09-13T07:28:41.698Z,5.65
2022-09-13T07:34:43.484Z,5.85
2022-09-13T07:40:54.664Z,5.63
2022-09-13T07:46:56.428Z,5.40
2022-09-13T07:52:58.193Z,5.25
2022-09-13T07:59:01.960Z,5.35
2022-09-13T08:05:04.477Z,5.30
2022-09-13T08:11:06.866Z,5.60
2022-09-13T08:17:09.264Z,5.40
2022-09-13T08:23:12.528Z,5.70
2022-09-13T08:29:15.295Z,4.78
2022-09-13T08:35:17.023Z,5.65
2022-09-13T08:41:47.919Z,5.30
2022-09-13T08:47:56.475Z,5.13
2022-09-13T08:53:59.043Z,4.85
2022-09-13T09:00:20.622Z,5.10
2022-09-13T09:06:23.371Z,5.07
2022-09-13T09:12:46.153Z,4.95
2022-09-13T09:18:49.608Z,5.07
2022-09-13T09:24:55.555Z,5.43
2022-09-13T09:31:16.429Z,5.20
2022-09-13T09:37:27.619Z,4.93
2022-09-13T09:43:52.532Z,4.90
2022-09-13T09:50:14.231Z,4.90
2022-09-13T09:56:30.894Z,4.68
2022-09-13T10:02:35.059Z,4.80
2022-09-13T10:08:40.016Z,4.55
2022-09-13T10:14:44.927Z,4.25
2022-09-13T10:21:01.635Z,4.63
2022-09-13T10:27:05.323Z,4.47
2022-09-13T10:33:16.754Z,4.35
2022-09-13T10:39:21.415Z,4.20
2022-09-13T10:45:26.440Z,4.40
2022-09-13T10:51:28.105Z,3.80
2022-09-13T10:57:37.917Z,3.90
2022-09-13T11:03:56.737Z,4.10
2022-09-13T11:10:06.763Z,3.80
2022-09-13T11:16:33.047Z,3.58
2022-09-13T11:23:11.389Z,3.10
2022-09-13T11:35:52.512Z,2.78
2022-09-13T11:42:26.188Z,3.60
2022-09-13T11:48:45.182Z,3.72
2022-09-13T11:54:59.524Z,3.30
2022-09-13T12:01:06.941Z,3.65
2022-09-13T12:07:31.860Z,4.38
2022-09-13T12:13:43.753Z,3.60
2022-09-13T12:19:47.896Z,4.47
2022-09-13T12:26:17.368Z,4.15
2022-09-13T12:32:19.822Z,4.00
2022-09-13T12:38:31.480Z,3.58
2022-09-13T12:44:39.370Z,3.60
2022-09-13T12:56:56.739Z,3.70
2022-09-13T13:03:19.999Z,3.75
2022-09-13T13:09:42.357Z,3.85
2022-09-13T13:15:49.294Z,3.53
2022-09-13T13:21:51.804Z,3.95
2022-09-13T13:27:55.186Z,4.00
2022-09-13T13:34:02.886Z,4.60
2022-09-13T13:40:22.376Z,5.15
2022-09-13T13:46:27.544Z,5.13
2022-09-13T13:52:40.820Z,5.60
2022-09-13T13:58:51.344Z,5.90
2022-09-13T14:05:23.476Z,6.07
2022-09-13T14:11:46.633Z,5.90
2022-09-13T14:17:59.044Z,6.38
2022-09-13T14:24:17.706Z,5.78
2022-09-13T14:30:27.119Z,5.15
2022-09-13T14:36:28.897Z,5.65
2022-09-13T14:42:42.554Z,5.10
2022-09-13T14:48:52.890Z,5.53
2022-09-13T14:54:58.585Z,5.38
2022-09-13T15:01:05.392Z,4.57
2022-09-13T15:07:28.185Z,4.90
2022-09-13T15:13:30.667Z,4.10
2022-09-13T15:19:42.496Z,5.00
2022-09-13T15:25:51.421Z,5.03
2022-09-13T15:31:59.447Z,4.00
2022-09-13T15:38:14.930Z,4.40
2022-09-13T15:44:16.690Z,3.92
2022-09-13T15:50:31.116Z,4.00
2022-09-13T15:56:35.554Z,4.60
2022-09-13T16:02:37.362Z,4.68
2022-09-13T16:08:40.102Z,4.45
2022-09-13T16:14:42.044Z,4.53
2022-09-13T16:20:44.475Z,4.47
2022-09-13T16:26:46.220Z,4.53
2022-09-13T16:32:48.397Z,4.10
2022-09-13T16:38:50.168Z,4.18
2022-09-13T16:44:51.989Z,4.18
2022-09-13T16:50:56.813Z,3.90
2022-09-13T16:56:58.778Z,4.63
2022-09-13T17:03:00.600Z,4.45
2022-09-13T17:09:05.417Z,4.28
2022-09-13T17:15:07.947Z,4.10
2022-09-13T17:21:11.033Z,5.30
2022-09-13T17:27:13.012Z,4.93
2022-09-13T17:33:14.867Z,4.45
2022-09-13T17:39:16.667Z,4.30
2022-09-13T17:45:18.646Z,4.20
2022-09-13T17:51:25.856Z,4.93
2022-09-13T17:57:28.167Z,4.78
2022-09-13T18:03:31.723Z,5.30
2022-09-13T18:09:33.500Z,5.40
2022-09-13T18:15:35.373Z,5.75
2022-09-13T18:21:37.650Z,5.80
2022-09-13T18:27:39.445Z,6.43
2022-09-13T18:33:42.099Z,5.85
2022-09-13T18:39:43.973Z,5.78
2022-09-13T18:45:54.287Z,5.15
2022-09-13T18:51:56.230Z,5.75
2022-09-13T18:57:58.557Z,5.05
2022-09-13T19:04:10.999Z,4.90
2022-09-13T19:10:16.109Z,5.72
2022-09-13T19:16:20.052Z,5.53
2022-09-13T19:22:21.832Z,5.28
2022-09-13T19:28:23.639Z,5.75
2022-09-13T19:34:25.455Z,6.10
2022-09-13T19:40:27.208Z,5.47
2022-09-13T20:23:23.467Z,7.10
2022-09-13T20:29:25.608Z,5.95
2022-09-13T20:35:48.183Z,6.50
2022-09-13T20:41:50.150Z,7.38
2022-09-13T20:47:52.397Z,7.32
2022-09-13T20:54:00.343Z,7.80
2022-09-13T21:07:01.088Z,8.57
2022-09-13T21:13:03.888Z,7.30
2022-09-13T21:19:05.660Z,8.18
2022-09-13T21:25:08.142Z,7.50
2022-09-13T21:31:21.425Z,8.00
2022-09-13T21:37:23.616Z,9.50
2022-09-13T21:43:28.124Z,8.50
2022-09-13T21:49:29.838Z,9.25
2022-09-13T21:55:35.397Z,7.85
2022-09-13T22:01:39.119Z,9.15
2022-09-13T22:07:40.918Z,9.50
2022-09-13T22:13:47.596Z,8.93
2022-09-13T22:19:49.373Z,7.28
2022-09-13T22:25:52.957Z,7.35
2022-09-13T22:31:54.909Z,6.45
2022-09-13T22:37:56.643Z,4.88
2022-09-13T22:43:59.998Z,2.92
2022-09-13T22:50:01.766Z,2.78
2022-09-13T22:56:05.927Z,2.85
2022-09-13T23:02:07.671Z,1.90
2022-09-13T23:08:10.529Z,2.35
2022-09-13T23:14:14.594Z,2.17
2022-09-13T23:20:16.710Z,1.55
2022-09-13T23:26:21.443Z,2.10
2022-09-13T23:32:23.204Z,1.75
2022-09-13T23:38:25.318Z,1.77
2022-09-13T23:44:29.048Z,1.98
2022-09-13T23:50:30.817Z,1.40
2022-09-13T23:56:33.364Z,1.58
